Time;durP1;ratioP1;P1;durP2;ratioP2;P2;SDS_P1;SDS_P2;PMS_P1;PMS_P2;Temp;Humidity;BMP_temperature;BMP_pressure;BME280_temperature;BME280_humidity;BME280_pressure;Samples;Min_cycle;Max_cycle;Signal;HPM_P1;HPM_P2
2021/07/28 00:02:04;;;;;;;4.43;3.92;;;;;;;;;;5082886;28;20565;-45
2021/07/28 00:04:34;;;;;;;4.85;4.43;;;;;;;;;;5110505;28;20281;-44
2021/07/28 00:06:59;;;;;;;4.30;3.90;;;;;;;;;;5095193;28;20303;-45
2021/07/28 00:09:25;;;;;;;4.20;3.83;;;;;;;;;;5093706;28;20253;-45
2021/07/28 00:11:51;;;;;;;4.55;4.10;;;;;;;;;;5097031;28;20173;-44
2021/07/28 00:14:17;;;;;;;4.45;4.05;;;;;;;;;;5103035;28;20181;-44
2021/07/28 00:16:44;;;;;;;5.10;4.60;;;;;;;;;;5118256;28;20173;-44
2021/07/28 00:19:23;;;;;;;5.82;4.72;;;;;;;;;;5096693;28;20259;-45
2021/07/28 00:24:34;;;;;;;4.18;3.88;;;;;;;;;;5116585;28;20216;-44
2021/07/28 00:27:00;;;;;;;4.65;4.10;;;;;;;;;;5103934;28;20178;-45
2021/07/28 00:29:27;;;;;;;5.10;4.60;;;;;;;;;;5097767;28;20178;-44
2021/07/28 00:31:52;;;;;;;4.47;4.07;;;;;;;;;;5097437;28;20166;-44
2021/07/28 00:34:18;;;;;;;4.32;3.92;;;;;;;;;;5116016;28;20181;-45
2021/07/28 00:36:44;;;;;;;3.78;3.47;;;;;;;;;;5107241;28;20177;-45
2021/07/28 00:39:10;;;;;;;3.95;3.55;;;;;;;;;;5096517;28;20201;-44
2021/07/28 00:41:45;;;;;;;4.45;3.50;;;;;;;;;;5097529;28;20166;-44
2021/07/28 00:44:11;;;;;;;4.05;3.72;;;;;;;;;;5097172;28;20600;-45
2021/07/28 00:46:37;;;;;;;3.88;3.58;;;;;;;;;;5097211;28;20177;-45
2021/07/28 00:49:04;;;;;;;4.68;4.10;;;;;;;;;;5092530;28;20186;-45
2021/07/28 00:51:30;;;;;;;5.50;4.47;;;;;;;;;;5098959;28;20188;-44
2021/07/28 00:53:56;;;;;;;4.50;4.10;;;;;;;;;;5089765;28;20189;-45
2021/07/28 00:56:22;;;;;;;6.32;4.05;;;;;;;;;;5087345;28;20223;-44
2021/07/28 00:58:48;;;;;;;4.57;4.18;;;;;;;;;;5096450;28;20787;-45
2021/07/28 01:01:15;;;;;;;4.40;3.80;;;;;;;;;;5073512;28;20663;-45
2021/07/28 01:03:42;;;;;;;4.40;4.00;;;;;;;;;;5100713;28;20197;-45
2021/07/28 01:06:10;;;;;;;6.53;4.40;;;;;;;;;;5098393;28;20177;-44
2021/07/28 01:08:36;;;;;;;5.18;3.90;;;;;;;;;;5105567;28;20188;-45
2021/07/28 01:11:03;;;;;;;4.53;3.92;;;;;;;;;;5088867;28;20182;-44
2021/07/28 01:13:31;;;;;;;4.22;3.80;;;;;;;;;;5094034;28;20185;-44
2021/07/28 01:16:13;;;;;;;4.30;3.90;;;;;;;;;;5107170;28;20231;-44
2021/07/28 01:18:39;;;;;;;4.47;4.00;;;;;;;;;;5097378;28;20196;-44
2021/07/28 01:21:11;;;;;;;4.85;4.10;;;;;;;;;;5097763;28;20174;-44
2021/07/28 01:23:38;;;;;;;5.57;4.00;;;;;;;;;;5088989;28;20213;-44
2021/07/28 01:26:05;;;;;;;5.00;4.15;;;;;;;;;;5116817;28;20204;-44
2021/07/28 01:28:32;;;;;;;7.07;4.82;;;;;;;;;;5090845;28;20167;-44
2021/07/28 01:30:59;;;;;;;6.90;4.38;;;;;;;;;;5082873;28;20209;-45
2021/07/28 01:33:26;;;;;;;7.18;4.57;;;;;;;;;;5098243;28;20192;-45
2021/07/28 01:35:52;;;;;;;6.03;4.05;;;;;;;;;;5110767;28;20214;-45
2021/07/28 01:38:25;;;;;;;5.18;4.05;;;;;;;;;;5083975;28;20463;-45
2021/07/28 01:40:51;;;;;;;7.20;4.50;;;;;;;;;;5096372;28;20162;-45
2021/07/28 01:43:17;;;;;;;6.32;4.35;;;;;;;;;;5115894;28;20329;-44
2021/07/28 01:45:43;;;;;;;4.13;3.72;;;;;;;;;;5093052;28;20494;-45
2021/07/28 01:48:09;;;;;;;6.00;4.13;;;;;;;;;;5083281;28;20174;-44
2021/07/28 01:50:35;;;;;;;4.63;3.90;;;;;;;;;;5092329;28;20198;-44
2021/07/28 01:53:04;;;;;;;6.10;4.63;;;;;;;;;;5095702;28;20193;-44
2021/07/28 01:55:31;;;;;;;8.00;4.90;;;;;;;;;;5079364;28;20182;-45
2021/07/28 01:57:58;;;;;;;4.40;4.00;;;;;;;;;;5083410;28;20556;-45
2021/07/28 02:00:24;;;;;;;5.30;4.20;;;;;;;;;;5088206;28;20184;-44
2021/07/28 02:02:50;;;;;;;4.95;4.45;;;;;;;;;;5115879;28;20257;-45
2021/07/28 02:05:16;;;;;;;5.05;4.38;;;;;;;;;;5101167;28;20645;-44
2021/07/28 02:07:42;;;;;;;6.80;4.35;;;;;;;;;;5100189;28;20209;-45
2021/07/28 02:10:08;;;;;;;4.95;3.85;;;;;;;;;;5086151;28;20170;-45
2021/07/28 02:12:34;;;;;;;5.60;4.60;;;;;;;;;;5084145;28;20186;-45
2021/07/28 02:15:00;;;;;;;4.90;4.30;;;;;;;;;;5111831;28;20177;-45
2021/07/28 02:17:26;;;;;;;4.85;4.38;;;;;;;;;;5096021;28;20182;-45
2021/07/28 02:19:52;;;;;;;4.60;4.10;;;;;;;;;;5103933;28;20459;-45
2021/07/28 02:22:18;;;;;;;5.03;3.65;;;;;;;;;;5113982;28;20181;-44
2021/07/28 02:24:44;;;;;;;4.53;4.10;;;;;;;;;;5112818;28;20212;-45
2021/07/28 02:27:10;;;;;;;4.93;4.03;;;;;;;;;;5114861;28;20176;-45
2021/07/28 02:29:37;;;;;;;6.60;4.68;;;;;;;;;;5094726;28;20177;-44
2021/07/28 02:32:04;;;;;;;6.13;4.35;;;;;;;;;;5103269;28;20444;-45
2021/07/28 02:34:33;;;;;;;5.00;3.88;;;;;;;;;;5105219;28;20204;-45
2021/07/28 02:36:59;;;;;;;4.63;3.85;;;;;;;;;;5097312;28;20481;-45
2021/07/28 02:39:25;;;;;;;5.22;4.15;;;;;;;;;;5077401;28;20442;-44
2021/07/28 02:41:51;;;;;;;5.10;3.75;;;;;;;;;;5078589;28;20532;-45
2021/07/28 02:44:17;;;;;;;4.60;4.20;;;;;;;;;;5093288;28;20213;-44
2021/07/28 02:46:43;;;;;;;4.60;3.97;;;;;;;;;;5095033;28;20172;-45
2021/07/28 02:49:09;;;;;;;4.28;3.88;;;;;;;;;;5099180;28;20197;-44
2021/07/28 02:51:35;;;;;;;4.25;3.92;;;;;;;;;;5098297;28;20224;-45
2021/07/28 02:54:01;;;;;;;4.32;3.90;;;;;;;;;;5093342;28;20211;-44
2021/07/28 02:56:28;;;;;;;4.45;4.05;;;;;;;;;;5093523;28;20577;-45
2021/07/28 02:58:54;;;;;;;5.75;4.72;;;;;;;;;;5082327;28;20180;-44
2021/07/28 03:01:20;;;;;;;4.10;3.70;;;;;;;;;;5107725;28;20227;-45
2021/07/28 03:03:46;;;;;;;4.35;3.95;;;;;;;;;;5105713;28;20208;-44
2021/07/28 03:06:12;;;;;;;4.93;4.13;;;;;;;;;;5097646;28;20190;-45
2021/07/28 03:08:38;;;;;;;5.63;3.88;;;;;;;;;;5104298;28;20268;-45
2021/07/28 03:11:04;;;;;;;5.03;4.10;;;;;;;;;;5088616;28;20171;-45
2021/07/28 03:13:30;;;;;;;6.18;4.25;;;;;;;;;;5097416;28;20488;-45
2021/07/28 03:15:56;;;;;;;4.65;4.25;;;;;;;;;;5115038;28;20162;-45
2021/07/28 03:18:22;;;;;;;8.15;4.30;;;;;;;;;;5096224;28;20178;-44
2021/07/28 03:20:47;;;;;;;4.40;3.90;;;;;;;;;;5104832;28;20173;-45
2021/07/28 03:23:13;;;;;;;4.97;3.97;;;;;;;;;;5089741;28;20197;-45
2021/07/28 03:25:39;;;;;;;4.05;3.65;;;;;;;;;;5102355;28;20198;-44
2021/07/28 03:28:05;;;;;;;4.13;3.72;;;;;;;;;;5077062;28;20202;-45
2021/07/28 03:30:31;;;;;;;5.07;3.88;;;;;;;;;;5092779;28;20178;-44
2021/07/28 03:32:57;;;;;;;5.90;4.18;;;;;;;;;;5099998;28;20176;-44
2021/07/28 03:35:23;;;;;;;4.78;3.70;;;;;;;;;;5096382;28;20634;-45
2021/07/28 03:37:49;;;;;;;4.60;4.20;;;;;;;;;;5100725;28;20238;-44
2021/07/28 03:40:15;;;;;;;3.47;3.17;;;;;;;;;;5090358;28;20256;-46
2021/07/28 03:42:44;;;;;;;4.88;4.38;;;;;;;;;;5074255;28;20443;-45
2021/07/28 03:45:10;;;;;;;5.53;3.75;;;;;;;;;;5091855;28;20548;-45
2021/07/28 03:47:36;;;;;;;4.00;3.60;;;;;;;;;;5098770;28;20174;-45
2021/07/28 03:50:02;;;;;;;4.35;3.95;;;;;;;;;;5105270;28;20179;-45
2021/07/28 03:52:28;;;;;;;4.13;3.67;;;;;;;;;;5085697;28;20186;-45
2021/07/28 03:54:55;;;;;;;5.10;4.05;;;;;;;;;;5092643;28;20229;-45
2021/07/28 03:57:21;;;;;;;8.50;4.32;;;;;;;;;;5086639;28;20243;-45
2021/07/28 03:59:47;;;;;;;7.40;4.28;;;;;;;;;;5113365;28;20204;-45
2021/07/28 04:02:13;;;;;;;10.02;4.75;;;;;;;;;;5105877;28;20198;-44
2021/07/28 04:04:40;;;;;;;6.32;3.83;;;;;;;;;;5097564;28;20232;-45
2021/07/28 04:07:11;;;;;;;9.13;4.82;;;;;;;;;;5106990;28;20176;-46
2021/07/28 04:09:37;;;;;;;10.57;4.78;;;;;;;;;;5092914;28;20179;-45
2021/07/28 04:12:03;;;;;;;10.10;5.25;;;;;;;;;;5082088;28;20418;-44
2021/07/28 04:14:29;;;;;;;8.32;4.90;;;;;;;;;;5102301;28;20189;-45
2021/07/28 04:16:55;;;;;;;12.18;5.25;;;;;;;;;;5097830;28;20609;-44
2021/07/28 04:19:21;;;;;;;8.48;4.30;;;;;;;;;;5097649;28;20252;-44
2021/07/28 04:21:47;;;;;;;8.10;4.80;;;;;;;;;;5106515;28;20177;-44
2021/07/28 04:24:13;;;;;;;10.38;4.85;;;;;;;;;;5104722;28;20212;-45
2021/07/28 04:26:39;;;;;;;9.60;5.38;;;;;;;;;;5118118;28;20185;-45
2021/07/28 04:29:05;;;;;;;7.63;4.72;;;;;;;;;;5116705;28;20209;-45
2021/07/28 04:31:31;;;;;;;10.45;4.90;;;;;;;;;;5097732;28;20475;-45
2021/07/28 04:33:57;;;;;;;8.90;4.70;;;;;;;;;;5101884;28;20189;-44
2021/07/28 04:36:23;;;;;;;7.10;4.80;;;;;;;;;;5114016;28;20187;-44
2021/07/28 04:38:49;;;;;;;7.75;4.65;;;;;;;;;;5088146;28;20186;-45
2021/07/28 04:41:15;;;;;;;8.80;4.63;;;;;;;;;;5077361;28;20170;-45
2021/07/28 04:43:41;;;;;;;5.82;4.43;;;;;;;;;;5082164;28;20208;-45
2021/07/28 04:46:07;;;;;;;7.28;5.00;;;;;;;;;;5117734;28;20211;-44
2021/07/28 04:48:33;;;;;;;6.38;4.60;;;;;;;;;;5116962;28;20169;-45
2021/07/28 04:50:59;;;;;;;5.95;4.70;;;;;;;;;;5113553;28;20237;-44
2021/07/28 04:53:28;;;;;;;6.70;5.03;;;;;;;;;;5092394;28;20185;-44
2021/07/28 04:55:55;;;;;;;6.22;4.82;;;;;;;;;;5076473;28;20483;-45
2021/07/28 04:58:21;;;;;;;7.30;5.22;;;;;;;;;;5095786;28;20556;-44
2021/07/28 05:00:47;;;;;;;7.55;5.10;;;;;;;;;;5096592;28;20277;-44
2021/07/28 05:03:13;;;;;;;6.30;5.28;;;;;;;;;;5102037;28;20170;-44
2021/07/28 05:05:39;;;;;;;7.70;5.50;;;;;;;;;;5097916;28;20209;-44
2021/07/28 05:08:05;;;;;;;11.43;5.50;;;;;;;;;;5100233;28;20231;-45
2021/07/28 05:10:31;;;;;;;7.07;5.20;;;;;;;;;;5096775;28;20166;-44
2021/07/28 05:12:57;;;;;;;5.95;5.25;;;;;;;;;;5106709;28;20182;-44
2021/07/28 05:15:23;;;;;;;6.93;5.30;;;;;;;;;;5102128;28;20556;-44
2021/07/28 05:17:49;;;;;;;7.20;5.80;;;;;;;;;;5095945;28;20178;-44
2021/07/28 05:20:17;;;;;;;5.97;5.28;;;;;;;;;;5098082;28;20170;-46
2021/07/28 05:22:43;;;;;;;7.60;5.50;;;;;;;;;;5104986;28;20169;-45
2021/07/28 05:25:09;;;;;;;5.53;4.95;;;;;;;;;;5099148;28;20292;-44
2021/07/28 05:27:35;;;;;;;7.03;5.68;;;;;;;;;;5096119;28;20561;-45
2021/07/28 05:30:02;;;;;;;5.95;5.28;;;;;;;;;;5096573;28;20173;-44
2021/07/28 05:32:28;;;;;;;6.55;5.28;;;;;;;;;;5101351;28;20196;-45
2021/07/28 05:34:54;;;;;;;6.22;5.60;;;;;;;;;;5111009;28;20260;-44
2021/07/28 05:37:20;;;;;;;7.95;5.97;;;;;;;;;;5100714;28;20178;-44
2021/07/28 05:39:46;;;;;;;6.47;5.88;;;;;;;;;;5096217;28;20820;-44
2021/07/28 05:42:13;;;;;;;7.95;5.65;;;;;;;;;;5098979;28;20174;-44
2021/07/28 05:44:39;;;;;;;6.07;5.45;;;;;;;;;;5095834;28;20197;-44
2021/07/28 05:47:05;;;;;;;7.25;5.20;;;;;;;;;;5095269;28;20188;-44
2021/07/28 05:49:31;;;;;;;7.07;5.30;;;;;;;;;;5105173;28;20181;-44
2021/07/28 05:51:57;;;;;;;7.07;5.60;;;;;;;;;;5101941;28;20184;-44
2021/07/28 05:54:23;;;;;;;5.90;4.90;;;;;;;;;;5116551;28;20551;-44
2021/07/28 05:56:49;;;;;;;7.45;5.97;;;;;;;;;;5115767;28;20609;-44
2021/07/28 05:59:15;;;;;;;8.15;6.15;;;;;;;;;;5093323;28;20188;-45
2021/07/28 06:01:41;;;;;;;6.43;5.78;;;;;;;;;;5097016;28;20182;-44
2021/07/28 06:04:07;;;;;;;8.18;5.97;;;;;;;;;;5101145;28;20220;-44
2021/07/28 06:06:33;;;;;;;8.50;6.38;;;;;;;;;;5094021;28;20170;-44
2021/07/28 06:08:59;;;;;;;7.45;5.65;;;;;;;;;;5102080;28;20700;-45
2021/07/28 06:11:25;;;;;;;6.05;5.13;;;;;;;;;;5096915;28;20182;-45
2021/07/28 06:13:51;;;;;;;9.85;5.43;;;;;;;;;;5095539;28;20220;-45
2021/07/28 06:16:18;;;;;;;6.53;5.82;;;;;;;;;;5095431;28;20209;-44
2021/07/28 06:18:44;;;;;;;6.53;5.55;;;;;;;;;;5110891;28;20189;-45
2021/07/28 06:21:10;;;;;;;5.93;5.32;;;;;;;;;;5098997;28;20188;-45
2021/07/28 06:23:36;;;;;;;5.50;4.95;;;;;;;;;;5115686;28;20216;-45
2021/07/28 06:26:02;;;;;;;7.13;6.05;;;;;;;;;;5112974;28;20200;-44
2021/07/28 06:28:28;;;;;;;5.90;5.25;;;;;;;;;;5094103;28;20779;-52
2021/07/28 06:30:54;;;;;;;7.05;5.30;;;;;;;;;;5094820;28;20181;-44
2021/07/28 06:33:21;;;;;;;7.57;5.75;;;;;;;;;;5096918;28;20213;-44
2021/07/28 06:35:50;;;;;;;6.45;5.80;;;;;;;;;;5093173;28;20186;-45
2021/07/28 06:38:17;;;;;;;6.72;5.50;;;;;;;;;;5091406;28;20195;-44
2021/07/28 06:40:43;;;;;;;5.88;5.10;;;;;;;;;;5108939;28;20222;-45
2021/07/28 06:43:09;;;;;;;6.75;5.82;;;;;;;;;;5103305;28;20442;-44
2021/07/28 06:45:35;;;;;;;7.30;5.80;;;;;;;;;;5109408;28;20212;-45
2021/07/28 06:48:01;;;;;;;6.13;4.97;;;;;;;;;;5111213;28;20181;-44
2021/07/28 06:50:27;;;;;;;8.25;5.70;;;;;;;;;;5103637;28;20416;-44
2021/07/28 06:52:53;;;;;;;5.50;5.00;;;;;;;;;;5098188;28;20166;-44
2021/07/28 06:55:19;;;;;;;6.30;5.70;;;;;;;;;;5085900;28;20185;-44
2021/07/28 06:57:45;;;;;;;5.88;5.30;;;;;;;;;;5095190;28;20472;-44
2021/07/28 07:00:11;;;;;;;5.25;4.72;;;;;;;;;;5090686;28;20189;-44
2021/07/28 07:02:37;;;;;;;7.53;4.82;;;;;;;;;;5098856;28;20264;-44
2021/07/28 07:05:04;;;;;;;5.85;4.85;;;;;;;;;;5082605;28;20522;-44
2021/07/28 07:07:30;;;;;;;5.40;4.82;;;;;;;;;;5086040;28;20174;-45
2021/07/28 07:09:56;;;;;;;5.65;4.97;;;;;;;;;;5095112;28;20549;-44
2021/07/28 07:12:23;;;;;;;6.18;5.22;;;;;;;;;;5097779;28;20182;-44
2021/07/28 07:14:49;;;;;;;6.35;5.50;;;;;;;;;;5093154;28;20188;-44
2021/07/28 07:17:15;;;;;;;5.93;5.28;;;;;;;;;;5093370;28;20174;-45
2021/07/28 07:19:42;;;;;;;8.90;6.20;;;;;;;;;;5082408;28;20193;-44
2021/07/28 07:22:08;;;;;;;5.90;5.30;;;;;;;;;;5091896;28;20177;-44
2021/07/28 07:24:34;;;;;;;6.80;5.60;;;;;;;;;;5089017;28;20205;-45
2021/07/28 07:27:00;;;;;;;8.63;5.88;;;;;;;;;;5092547;28;20661;-45
2021/07/28 07:29:26;;;;;;;6.30;5.70;;;;;;;;;;5096670;28;20178;-46
2021/07/28 07:31:52;;;;;;;6.13;5.53;;;;;;;;;;5093687;28;20166;-44
2021/07/28 07:34:18;;;;;;;5.45;4.95;;;;;;;;;;5109936;28;20180;-44
2021/07/28 07:36:44;;;;;;;7.35;5.78;;;;;;;;;;5114716;28;20161;-44
2021/07/28 07:39:10;;;;;;;5.95;4.90;;;;;;;;;;5112955;28;20188;-44
2021/07/28 07:41:36;;;;;;;6.25;5.63;;;;;;;;;;5094114;28;20234;-44
2021/07/28 07:44:02;;;;;;;6.75;5.45;;;;;;;;;;5105045;28;20201;-44
2021/07/28 07:46:28;;;;;;;5.90;5.30;;;;;;;;;;5113092;28;20318;-44
2021/07/28 07:48:56;;;;;;;7.90;5.10;;;;;;;;;;5102292;28;20189;-44
2021/07/28 07:51:22;;;;;;;5.90;5.20;;;;;;;;;;5084026;28;20181;-44
2021/07/28 07:53:48;;;;;;;5.97;4.82;;;;;;;;;;5095144;28;20212;-44
2021/07/28 07:56:14;;;;;;;7.40;4.90;;;;;;;;;;5094070;28;20782;-45
2021/07/28 07:58:40;;;;;;;6.43;5.05;;;;;;;;;;5084085;28;20181;-47
2021/07/28 08:01:06;;;;;;;6.65;5.10;;;;;;;;;;5086955;28;20572;-46
2021/07/28 08:03:32;;;;;;;5.88;4.90;;;;;;;;;;5104834;28;20177;-47
2021/07/28 08:05:59;;;;;;;5.38;4.88;;;;;;;;;;5090347;28;20182;-46
2021/07/28 08:08:25;;;;;;;5.07;4.60;;;;;;;;;;5093172;28;20177;-46
2021/07/28 08:10:51;;;;;;;9.07;5.45;;;;;;;;;;5093980;28;20186;-46
2021/07/28 08:13:17;;;;;;;6.28;4.90;;;;;;;;;;5098312;28;20616;-47
2021/07/28 08:15:43;;;;;;;5.93;5.00;;;;;;;;;;5095873;28;20607;-47
2021/07/28 08:18:09;;;;;;;7.00;5.00;;;;;;;;;;5093313;28;20174;-47
2021/07/28 08:20:36;;;;;;;5.30;4.75;;;;;;;;;;5096068;28;20178;-45
2021/07/28 08:23:02;;;;;;;4.57;4.13;;;;;;;;;;5103144;28;20170;-46
2021/07/28 08:25:28;;;;;;;4.82;3.97;;;;;;;;;;5073444;28;20229;-45
2021/07/28 08:27:54;;;;;;;4.65;4.25;;;;;;;;;;5079861;28;20513;-46
2021/07/28 08:30:20;;;;;;;5.85;4.35;;;;;;;;;;5104266;28;20228;-45
2021/07/28 08:32:46;;;;;;;6.18;4.50;;;;;;;;;;5097737;28;20571;-46
2021/07/28 08:35:12;;;;;;;4.75;4.32;;;;;;;;;;5097360;28;20177;-46
2021/07/28 08:37:40;;;;;;;4.47;4.07;;;;;;;;;;5088780;28;20178;-46
2021/07/28 08:40:12;;;;;;;5.07;4.18;;;;;;;;;;5097223;28;20230;-47
2021/07/28 08:42:40;;;;;;;4.25;3.85;;;;;;;;;;5096559;28;20228;-47
2021/07/28 08:45:06;;;;;;;4.75;3.80;;;;;;;;;;5094674;28;20244;-46
2021/07/28 08:47:32;;;;;;;4.53;3.63;;;;;;;;;;5096532;28;20176;-46
2021/07/28 08:49:58;;;;;;;4.80;4.30;;;;;;;;;;5095830;28;20210;-45
2021/07/28 08:52:25;;;;;;;4.95;4.00;;;;;;;;;;5088670;28;20205;-45
2021/07/28 08:54:51;;;;;;;5.32;3.80;;;;;;;;;;5094595;28;20271;-45
2021/07/28 08:57:18;;;;;;;4.50;4.10;;;;;;;;;;5096405;28;20185;-45
2021/07/28 08:59:44;;;;;;;5.05;3.97;;;;;;;;;;5082385;28;20185;-45
2021/07/28 09:02:10;;;;;;;6.30;3.95;;;;;;;;;;5089209;28;20174;-45
2021/07/28 09:04:36;;;;;;;5.13;4.38;;;;;;;;;;5100253;28;20641;-45
2021/07/28 09:07:13;;;;;;;4.22;3.83;;;;;;;;;;5093874;28;20449;-45
2021/07/28 09:09:52;;;;;;;4.50;3.97;;;;;;;;;;5079894;28;20182;-45
2021/07/28 09:12:19;;;;;;;4.85;3.85;;;;;;;;;;5086070;28;20177;-45
2021/07/28 09:14:53;;;;;;;4.20;3.78;;;;;;;;;;5097929;28;20185;-45
2021/07/28 09:17:20;;;;;;;5.13;3.90;;;;;;;;;;5081640;28;20212;-45
2021/07/28 09:19:47;;;;;;;4.30;3.90;;;;;;;;;;5107610;28;20220;-45
2021/07/28 09:22:14;;;;;;;4.72;3.67;;;;;;;;;;5096029;28;20181;-45
2021/07/28 09:24:42;;;;;;;5.80;3.88;;;;;;;;;;5100756;28;20307;-45
2021/07/28 09:27:08;;;;;;;4.38;3.97;;;;;;;;;;5095880;28;20197;-45
2021/07/28 09:29:39;;;;;;;4.43;3.72;;;;;;;;;;5093303;28;20216;-45
2021/07/28 09:32:07;;;;;;;4.78;4.03;;;;;;;;;;5114587;28;20230;-45
2021/07/28 09:34:35;;;;;;;3.97;3.60;;;;;;;;;;5085358;28;20173;-45
2021/07/28 09:37:01;;;;;;;4.43;3.90;;;;;;;;;;5095419;28;20209;-45
2021/07/28 09:39:28;;;;;;;4.03;3.70;;;;;;;;;;5080030;28;20596;-45
2021/07/28 09:41:55;;;;;;;5.75;4.38;;;;;;;;;;5104313;28;20223;-45
2021/07/28 09:44:31;;;;;;;4.43;3.92;;;;;;;;;;5114021;28;20201;-45
2021/07/28 09:47:03;;;;;;;6.65;4.03;;;;;;;;;;5096867;28;20177;-45
2021/07/28 09:49:29;;;;;;;5.70;4.05;;;;;;;;;;5090576;28;20993;-45
2021/07/28 09:51:56;;;;;;;4.40;3.80;;;;;;;;;;5077355;28;20178;-45
2021/07/28 09:54:26;;;;;;;4.15;3.75;;;;;;;;;;5088572;28;20177;-45
2021/07/28 09:56:55;;;;;;;5.28;4.03;;;;;;;;;;5104971;28;20186;-45
2021/07/28 09:59:25;;;;;;;5.80;3.92;;;;;;;;;;5095810;28;20422;-45
2021/07/28 10:01:55;;;;;;;4.40;3.97;;;;;;;;;;5094137;28;20181;-45
2021/07/28 10:04:21;;;;;;;5.20;3.80;;;;;;;;;;5098737;28;20616;-45
2021/07/28 10:06:48;;;;;;;4.35;3.95;;;;;;;;;;5095923;28;20579;-45
2021/07/28 10:09:16;;;;;;;4.07;3.70;;;;;;;;;;5086324;28;20179;-46
2021/07/28 10:11:46;;;;;;;4.50;4.10;;;;;;;;;;5075233;28;20170;-45
2021/07/28 10:14:15;;;;;;;4.72;3.85;;;;;;;;;;5104788;28;20457;-45
2021/07/28 10:16:41;;;;;;;3.85;3.50;;;;;;;;;;5114256;28;20214;-45
2021/07/28 10:19:07;;;;;;;4.57;4.18;;;;;;;;;;5102213;28;20177;-45
2021/07/28 10:21:34;;;;;;;4.15;3.75;;;;;;;;;;5093791;28;20197;-46
2021/07/28 10:24:00;;;;;;;6.57;4.35;;;;;;;;;;5094948;28;20275;-45
2021/07/28 10:26:26;;;;;;;5.50;3.97;;;;;;;;;;5088528;28;20175;-45
2021/07/28 10:28:54;;;;;;;5.70;3.67;;;;;;;;;;5106611;28;20186;-45
2021/07/28 10:31:21;;;;;;;3.80;3.40;;;;;;;;;;5088877;28;20216;-45
2021/07/28 10:33:49;;;;;;;38.63;22.95;;;;;;;;;;5084614;28;20178;-45
2021/07/28 10:36:15;;;;;;;52.17;34.30;;;;;;;;;;5076218;28;20542;-45
2021/07/28 10:38:51;;;;;;;66.03;38.60;;;;;;;;;;5092730;28;20185;-45
2021/07/28 10:41:36;;;;;;;35.05;21.85;;;;;;;;;;5104877;28;20670;-45
2021/07/28 10:44:12;;;;;;;33.65;18.63;;;;;;;;;;5115376;28;20211;-45
2021/07/28 10:46:53;;;;;;;34.35;21.45;;;;;;;;;;5114435;28;20172;-45
2021/07/28 10:49:35;;;;;;;34.20;20.15;;;;;;;;;;5089988;28;20194;-45
2021/07/28 10:52:01;;;;;;;23.13;15.23;;;;;;;;;;5092172;28;20478;-45
2021/07/28 10:54:49;;;;;;;16.58;11.38;;;;;;;;;;5115013;28;20169;-45
2021/07/28 10:57:34;;;;;;;13.23;9.70;;;;;;;;;;5109224;28;20227;-45
2021/07/28 11:00:00;;;;;;;18.10;11.60;;;;;;;;;;5094247;28;20261;-45
2021/07/28 11:02:45;;;;;;;18.63;11.10;;;;;;;;;;5094605;28;20182;-45
2021/07/28 11:05:20;;;;;;;19.98;10.15;;;;;;;;;;5097722;28;20209;-45
2021/07/28 11:08:05;;;;;;;21.25;8.70;;;;;;;;;;5079945;28;20177;-45
2021/07/28 11:10:35;;;;;;;21.88;11.07;;;;;;;;;;5097541;28;20177;-45
2021/07/28 11:13:11;;;;;;;29.80;13.68;;;;;;;;;;5115066;28;20166;-45
2021/07/28 11:15:38;;;;;;;19.08;9.32;;;;;;;;;;5110981;28;20260;-45
2021/07/28 11:18:05;;;;;;;18.95;9.45;;;;;;;;;;5089844;28;20637;-45
2021/07/28 11:20:34;;;;;;;22.20;10.38;;;;;;;;;;5093380;28;20186;-45
2021/07/28 11:23:18;;;;;;;20.00;9.18;;;;;;;;;;5089878;28;20180;-45
2021/07/28 11:25:44;;;;;;;14.95;7.78;;;;;;;;;;5090041;28;20202;-45
2021/07/28 11:28:10;;;;;;;21.02;10.18;;;;;;;;;;5087316;28;20176;-45
2021/07/28 11:30:37;;;;;;;19.42;8.80;;;;;;;;;;5114650;28;20169;-45
2021/07/28 11:33:12;;;;;;;13.02;7.55;;;;;;;;;;5101220;28;20243;-45
2021/07/28 11:35:45;;;;;;;9.32;7.70;;;;;;;;;;5094372;28;20562;-46
2021/07/28 11:38:15;;;;;;;9.48;6.28;;;;;;;;;;5093796;28;20258;-45
2021/07/28 11:40:48;;;;;;;9.80;6.07;;;;;;;;;;5105821;28;20238;-45
2021/07/28 11:43:20;;;;;;;11.82;7.00;;;;;;;;;;5114297;28;20443;-45
2021/07/28 11:45:46;;;;;;;8.48;5.82;;;;;;;;;;5112909;28;20200;-45
2021/07/28 11:48:28;;;;;;;7.65;5.03;;;;;;;;;;5103724;28;20180;-45
2021/07/28 11:50:54;;;;;;;7.25;5.05;;;;;;;;;;5083700;28;20181;-45
2021/07/28 11:53:23;;;;;;;6.63;4.93;;;;;;;;;;5098720;28;20165;-45
2021/07/28 11:55:49;;;;;;;5.97;4.40;;;;;;;;;;5114468;28;20861;-45
2021/07/28 11:58:16;;;;;;;5.95;5.05;;;;;;;;;;5106266;28;20182;-46
2021/07/28 12:00:44;;;;;;;6.53;5.05;;;;;;;;;;5092888;28;20175;-45
2021/07/28 12:03:22;;;;;;;6.35;4.20;;;;;;;;;;5099900;28;20177;-46
2021/07/28 12:06:05;;;;;;;4.47;3.72;;;;;;;;;;5084254;28;20210;-45
2021/07/28 12:08:32;;;;;;;5.82;4.65;;;;;;;;;;5096103;28;20256;-45
2021/07/28 12:11:05;;;;;;;5.38;4.40;;;;;;;;;;5097888;28;20173;-45
2021/07/28 12:13:43;;;;;;;4.30;3.90;;;;;;;;;;5098088;28;20166;-45
2021/07/28 12:16:09;;;;;;;5.07;4.25;;;;;;;;;;5109294;28;20497;-45
2021/07/28 12:18:52;;;;;;;5.63;4.03;;;;;;;;;;5103465;28;20174;-45
2021/07/28 12:21:18;;;;;;;5.13;4.63;;;;;;;;;;5082800;28;20174;-45
2021/07/28 12:23:53;;;;;;;4.30;3.90;;;;;;;;;;5084012;28;20562;-45
2021/07/28 12:26:38;;;;;;;5.03;4.22;;;;;;;;;;5085009;28;20572;-46
2021/07/28 12:29:04;;;;;;;6.88;4.70;;;;;;;;;;5116127;28;20177;-45
2021/07/28 12:31:30;;;;;;;8.20;4.53;;;;;;;;;;5094035;28;20266;-45
2021/07/28 12:34:16;;;;;;;5.18;4.68;;;;;;;;;;5110042;28;20178;-45
2021/07/28 12:36:42;;;;;;;5.38;4.50;;;;;;;;;;5097520;28;20178;-45
2021/07/28 12:39:08;;;;;;;5.15;3.97;;;;;;;;;;5093760;28;20181;-45
2021/07/28 12:41:34;;;;;;;7.13;4.43;;;;;;;;;;5117525;28;20252;-46
2021/07/28 12:44:00;;;;;;;6.05;4.60;;;;;;;;;;5113021;28;20174;-45
2021/07/28 12:46:26;;;;;;;5.07;4.30;;;;;;;;;;5108008;28;20477;-46
2021/07/28 12:48:52;;;;;;;8.18;4.25;;;;;;;;;;5100717;28;20213;-45
2021/07/28 12:51:21;;;;;;;4.47;3.92;;;;;;;;;;5097145;28;20205;-45
2021/07/28 12:53:49;;;;;;;4.43;3.75;;;;;;;;;;5097158;28;20197;-45
2021/07/28 12:56:15;;;;;;;6.97;4.22;;;;;;;;;;5100325;28;20226;-45
2021/07/28 12:58:41;;;;;;;4.70;4.25;;;;;;;;;;5101651;28;20186;-45
2021/07/28 13:01:07;;;;;;;4.60;4.20;;;;;;;;;;5088392;28;20178;-45
2021/07/28 13:03:36;;;;;;;4.78;4.28;;;;;;;;;;5093296;28;20257;-45
2021/07/28 13:06:07;;;;;;;4.75;4.13;;;;;;;;;;5085035;28;20580;-45
2021/07/28 13:08:33;;;;;;;4.82;4.43;;;;;;;;;;5097067;28;20181;-45
2021/07/28 13:10:59;;;;;;;6.13;4.40;;;;;;;;;;5090705;28;20177;-45
2021/07/28 13:13:25;;;;;;;5.10;4.60;;;;;;;;;;5096614;28;20570;-45
2021/07/28 13:15:54;;;;;;;5.43;4.45;;;;;;;;;;5113114;28;20181;-45
2021/07/28 13:18:20;;;;;;;5.18;4.68;;;;;;;;;;5104308;28;20572;-45
2021/07/28 13:20:46;;;;;;;5.40;4.50;;;;;;;;;;5096677;28;20178;-46
2021/07/28 13:23:14;;;;;;;4.97;4.35;;;;;;;;;;5094873;28;20173;-45
2021/07/28 13:25:40;;;;;;;5.93;4.70;;;;;;;;;;5076481;28;20236;-46
2021/07/28 13:28:06;;;;;;;5.00;4.57;;;;;;;;;;5085116;28;20238;-45
2021/07/28 13:30:32;;;;;;;5.30;4.80;;;;;;;;;;5101197;28;20264;-45
2021/07/28 13:33:00;;;;;;;4.90;3.88;;;;;;;;;;5097201;28;20440;-45
2021/07/28 13:35:26;;;;;;;5.40;4.90;;;;;;;;;;5084933;28;20178;-45
2021/07/28 13:37:53;;;;;;;7.53;4.57;;;;;;;;;;5081596;28;20569;-45
2021/07/28 13:40:19;;;;;;;5.55;4.63;;;;;;;;;;5104405;28;20272;-45
2021/07/28 13:42:46;;;;;;;5.45;4.90;;;;;;;;;;5090970;28;20261;-45
2021/07/28 13:45:12;;;;;;;7.10;5.03;;;;;;;;;;5095966;28;20228;-45
2021/07/28 13:47:40;;;;;;;5.15;4.63;;;;;;;;;;5096965;28;20209;-45
2021/07/28 13:50:06;;;;;;;6.10;5.15;;;;;;;;;;5094446;28;20214;-45
2021/07/28 13:52:32;;;;;;;6.60;5.22;;;;;;;;;;5106322;28;20192;-45
2021/07/28 13:54:58;;;;;;;5.25;4.72;;;;;;;;;;5091686;28;20561;-45
2021/07/28 13:57:24;;;;;;;5.07;4.55;;;;;;;;;;5085253;28;20182;-45
2021/07/28 13:59:51;;;;;;;5.65;5.05;;;;;;;;;;5093548;28;20174;-45
2021/07/28 14:02:22;;;;;;;5.10;4.57;;;;;;;;;;5097242;28;20170;-45
2021/07/28 14:04:48;;;;;;;5.40;4.50;;;;;;;;;;5087594;28;20190;-45
2021/07/28 14:07:14;;;;;;;7.60;4.60;;;;;;;;;;5079218;28;20205;-45
2021/07/28 14:09:41;;;;;;;5.22;4.35;;;;;;;;;;5093236;28;20710;-45
2021/07/28 14:12:07;;;;;;;5.68;4.57;;;;;;;;;;5091685;28;20175;-45
2021/07/28 14:14:34;;;;;;;6.85;4.22;;;;;;;;;;5087077;28;20178;-45
2021/07/28 14:17:01;;;;;;;5.03;4.53;;;;;;;;;;5102897;28;20883;-45
2021/07/28 14:19:28;;;;;;;4.80;4.30;;;;;;;;;;5086660;28;20215;-45
2021/07/28 14:21:54;;;;;;;4.82;4.43;;;;;;;;;;5088890;28;20183;-46
2021/07/28 14:24:20;;;;;;;6.15;4.35;;;;;;;;;;5076953;28;20206;-45
2021/07/28 14:26:46;;;;;;;6.75;4.32;;;;;;;;;;5093949;28;20513;-45
2021/07/28 14:29:14;;;;;;;4.43;4.03;;;;;;;;;;5102528;28;20184;-45
2021/07/28 14:31:39;;;;;;;5.07;4.35;;;;;;;;;;5105448;28;20169;-45
2021/07/28 14:34:05;;;;;;;4.90;4.10;;;;;;;;;;5098633;28;20166;-45
2021/07/28 14:36:32;;;;;;;4.65;4.18;;;;;;;;;;5079179;28;20598;-45
2021/07/28 14:38:58;;;;;;;4.85;4.35;;;;;;;;;;5084928;28;20202;-45
2021/07/28 14:41:24;;;;;;;5.15;4.20;;;;;;;;;;5108817;28;20179;-45
2021/07/28 14:43:50;;;;;;;4.75;4.28;;;;;;;;;;5090871;28;20446;-45
2021/07/28 14:46:19;;;;;;;5.93;4.78;;;;;;;;;;5089626;28;20174;-45